This is the latest recevied weather packets stored in our database for station/object AI5YA-13. If no packets are shown the sender has not sent any weather packets the latest 1 day(s).
| Time | Temp. | Humidity | Pressure | Rain* | Wind** | Luminosity | Snow |
|---|---|---|---|---|---|---|---|
| 1778034439 | 22.22° C | 39% | 1008.7 hPa | 0 mm | - | 0 W/m² | - |
| 1778033532 | 21.67° C | 40% | 1008.8 hPa | 0 mm | - | 0 W/m² | - |
| 1778032624 | 22.78° C | 38% | 1009.2 hPa | 0 mm | - | 0 W/m² | - |
| 1778031714 | 23.33° C | 37% | 1009.1 hPa | 0 mm | - | 0 W/m² | - |
| 1778031412 | 23.33° C | 37% | 1009.1 hPa | 0 mm | - | 0 W/m² | - |
| 1778031109 | 23.33° C | 37% | 1009 hPa | 0 mm | - | 2 W/m² | - |
| 1778030502 | 23.89° C | 35% | 1009.1 hPa | 0 mm | - | 6 W/m² | - |
| 1778029595 | 25° C | 33% | 1009 hPa | 0 mm | - | 16 W/m² | - |
| 1778028988 | 25° C | 32% | 1008.8 hPa | 0 mm | - | 33 W/m² | - |
| 1778027775 | 25.56° C | 32% | 1009 hPa | 0 mm | - | 109 W/m² | - |
| 1778027471 | 25.56° C | 31% | 1009 hPa | 0 mm | - | 128 W/m² | - |
| 1778027167 | 26.11° C | 32% | 1009 hPa | 0 mm | - | 147 W/m² | - |
| 1778025954 | 25° C | 33% | 1009.3 hPa | 0 mm | - | 99 W/m² | - |
| 1778025046 | 25° C | 32% | 1009.5 hPa | 0 mm | - | 70 W/m² | - |
| 1778018380 | 26.11° C | 28% | 1009.1 hPa | 0 mm | - | 91 W/m² | - |
| 1778016564 | 26.67° C | 28% | 1009.3 hPa | 0 mm | - | 212 W/m² | - |
| 1778016261 | 26.67° C | 28% | 1009.2 hPa | 0 mm | - | 224 W/m² | - |
| 1778015351 | 26.67° C | 28% | 1009.7 hPa | 0 mm | - | 203 W/m² | - |
| 1778014140 | 26.11° C | 29% | 1009.7 hPa | 0 mm | - | 196 W/m² | - |
| 1778012624 | 26.11° C | 29% | 1009.9 hPa | 0 mm | - | 185 W/m² | - |
| 1778012018 | 25.56° C | 29% | 1010.3 hPa | 0 mm | - | 172 W/m² | - |
| 1778010200 | 26.11° C | 26% | 1010.1 hPa | 0 mm | - | 189 W/m² | - |
| 1778009895 | 26.67° C | 27% | 1010.1 hPa | 0 mm | - | 212 W/m² | - |
| 1778009291 | 26.67° C | 26% | 1010.2 hPa | 0 mm | - | 363 W/m² | - |
* Rain latest hour (hover to see other rain measurements)
** Current wind speed in m/s (hover to see current wind gust speed)